Windhoek — 3FWJ3 — position and weather

sailwx.info

Track history (hours):
 
Tides and Currents Weather Stations Pressure Air Temp Water Temp Dewpoint Dewpoint Depression Visibility Wind Speed Wind Dir Waves Ship Positions

Windhoek

Last reported at 2017-Feb-17 05:10 UTC. Time now 2017-Feb-24 21:39 UTC.
Position N 35°13' W 006°58'.

Length 172 m; draft 6.6 m.

Type: Ship (hazmat cat C). MMSI: 370431000.

Date/timePositionNaut miles runAvg speedWind from/ knotsBaromVisibWave heightAir tempDewpointWater temp
2017-Feb-17 05:10N 35°13' W 006°58'2 1.0
2017-Feb-17 03:32N 35°14' W 006°57'79 3.9
2017-Feb-16 07:08N 35°58' W 005°36'610.3
2017-Feb-16 06:31N 35°54' W 005°30'1 0.0
2017-Feb-15 19:14N 35°54' W 005°29'0 0.0
2017-Feb-15 18:29N 35°54' W 005°29'0 0.0
2017-Feb-15 17:32N 35°54' W 005°29'0 0.0
2017-Feb-15 16:32N 35°54' W 005°29'0 0.0
2017-Feb-15 15:32N 35°54' W 005°29'1 1.4
2017-Feb-15 14:33N 35°55' W 005°30'5 4.7
2017-Feb-15 13:33N 35°52' W 005°34'1 1.2
2017-Feb-15 12:33N 35°53' W 005°36'6 5.8
2017-Feb-15 11:32N 35°54' W 005°43'  
2017-Feb-13 00:31N 28°55' W 012°56'  
Track history (hours):
 
Tides and Currents Weather Stations Pressure Air Temp Water Temp Dewpoint Dewpoint Depression Visibility Wind Speed Wind Dir Waves Ship Positions

Windhoek

Last reported at 2017-Feb-17 05:10 UTC. Time now 2017-Feb-24 21:39 UTC.
Position N 35°13' W 006°58'.

Length 172 m; draft 6.6 m.

Type: Ship (hazmat cat C). MMSI: 370431000.

Date/timePositionNaut miles runAvg speedWind from/ knotsBaromVisibWave heightAir tempDewpointWater temp
2017-Feb-17 05:10N 35°13' W 006°58'2 1.0
2017-Feb-17 03:32N 35°14' W 006°57'79 3.9
2017-Feb-16 07:08N 35°58' W 005°36'610.3
2017-Feb-16 06:31N 35°54' W 005°30'1 0.0
2017-Feb-15 19:14N 35°54' W 005°29'0 0.0
2017-Feb-15 18:29N 35°54' W 005°29'0 0.0
2017-Feb-15 17:32N 35°54' W 005°29'0 0.0
2017-Feb-15 16:32N 35°54' W 005°29'0 0.0
2017-Feb-15 15:32N 35°54' W 005°29'1 1.4
2017-Feb-15 14:33N 35°55' W 005°30'5 4.7
2017-Feb-15 13:33N 35°52' W 005°34'1 1.2
2017-Feb-15 12:33N 35°53' W 005°36'6 5.8
2017-Feb-15 11:32N 35°54' W 005°43'  
2017-Feb-13 00:31N 28°55' W 012°56'  

Dump ship's entire track history